Altha, Florida
Current Conditions -  °F | °C
As of 6:53 PM on Sunday 21 Dec 2014 (Local Time) from KMAI Reporting Station
Haze Haze  
Wind Chill: 54°   Ceiling: 300
Heat Index: 54°   Visibility: 5mi
Dew Point: 54°   Wind: 7mph
Humidity: 100%   Direction: 80°E
Pressure: 30.04"   Gusts: NA
Location:  30.57°N, 85.13°W
Report Text: KMAI 220053Z AUTO 08006KT 5SM BR OVC003 12/12 A3004 RMK AO2 SLP171 T01220122 $
Loading
Personal Weather Stations






























Interactive Weather Map New forecast layout! Learn more

10-Day Weather Forecast

Advertisements
Track Severe Weather on mobile